Grass Valley, Nevada
Current Conditions -  °F | °C
As of 9:56 PM on Friday 19 Dec 2014 (Local Time) from KWMC Reporting Station
Overcast Overcast  
Wind Chill: 28°   Ceiling: 6000
Heat Index: 36°   Visibility: 10mi
Dew Point: 33°   Wind: 12mph
Humidity: 89%   Direction: 200°SSW
Pressure: 30.13"   Gusts: NA
Location:  41.1353°N, 118.186°W
Report Text: KWMC 200556Z AUTO 20010KT 10SM OVC060 02/01 A3013 RMK AO2 SLP206 60003 T00220006 10022 20011 53002
Loading
Personal Weather Stations






























Interactive Weather Map New forecast layout! Learn more

10-Day Weather Forecast

Advertisements
Track Severe Weather on mobile